createdAt,value
2017-09-27T00:00:17.282Z,1017.49
2017-09-27T00:00:43.456Z,1017.48
2017-09-27T00:01:09.563Z,1017.49
2017-09-27T00:01:35.723Z,1017.5
2017-09-27T00:02:01.863Z,1017.48
2017-09-27T00:02:27.996Z,1017.48
2017-09-27T00:02:54.160Z,1017.49
2017-09-27T00:03:20.298Z,1017.49
2017-09-27T00:03:46.428Z,1017.51
2017-09-27T00:04:12.547Z,1017.5
2017-09-27T00:04:38.759Z,1017.48
2017-09-27T00:05:04.871Z,1017.48
2017-09-27T00:05:31.031Z,1017.47
2017-09-27T00:05:57.152Z,1017.52
2017-09-27T00:06:23.299Z,1017.51
2017-09-27T00:06:49.411Z,1017.49
2017-09-27T00:07:15.537Z,1017.48
2017-09-27T00:07:41.683Z,1017.49
2017-09-27T00:08:07.851Z,1017.49
2017-09-27T00:08:34.020Z,1017.47
2017-09-27T00:09:00.115Z,1017.53
2017-09-27T00:09:26.238Z,1017.51
2017-09-27T00:09:52.385Z,1017.5
2017-09-27T00:10:18.505Z,1017.49
2017-09-27T00:10:44.655Z,1017.48
2017-09-27T00:11:10.833Z,1017.5
2017-09-27T00:11:36.969Z,1017.5
2017-09-27T00:12:03.140Z,1017.48
2017-09-27T00:12:29.289Z,1017.5
2017-09-27T00:12:55.381Z,1017.49
2017-09-27T00:13:21.546Z,1017.5
2017-09-27T00:13:47.720Z,1017.49
2017-09-27T00:14:13.856Z,1017.47
2017-09-27T00:14:40.013Z,1017.47
2017-09-27T00:15:06.160Z,1017.48
2017-09-27T00:15:32.297Z,1017.49
2017-09-27T00:15:58.428Z,1017.46
2017-09-27T00:16:24.585Z,1017.45
2017-09-27T00:16:50.735Z,1017.42
2017-09-27T00:17:16.824Z,1017.46
2017-09-27T00:17:42.982Z,1017.42
2017-09-27T00:18:09.143Z,1017.43
2017-09-27T00:18:35.320Z,1017.44
2017-09-27T00:19:01.457Z,1017.47
2017-09-27T00:19:27.608Z,1017.43
2017-09-27T00:19:53.690Z,1017.39
2017-09-27T00:20:19.834Z,1017.44
2017-09-27T00:20:45.977Z,1017.41
2017-09-27T00:21:12.129Z,1017.43
2017-09-27T00:21:38.314Z,1017.41
2017-09-27T00:22:04.456Z,1017.42
2017-09-27T00:22:30.624Z,1017.42
2017-09-27T00:22:56.788Z,1017.45
2017-09-27T00:23:22.898Z,1017.4
2017-09-27T00:23:49.028Z,1017.4
2017-09-27T00:24:15.193Z,1017.4
2017-09-27T00:24:41.315Z,1017.4
2017-09-27T00:25:07.484Z,1017.43
2017-09-27T00:25:33.554Z,1017.39
2017-09-27T00:25:59.735Z,1017.39
2017-09-27T00:26:25.895Z,1017.42
2017-09-27T00:26:52.309Z,1017.39
2017-09-27T00:27:18.427Z,1017.41
2017-09-27T00:27:44.578Z,1017.42
2017-09-27T00:28:10.740Z,1017.43
2017-09-27T00:28:36.846Z,1017.39
2017-09-27T00:29:02.988Z,1017.42
2017-09-27T00:29:29.111Z,1017.4
2017-09-27T00:29:55.252Z,1017.41
2017-09-27T00:30:21.439Z,1017.39
2017-09-27T00:30:47.597Z,1017.42
2017-09-27T00:31:13.732Z,1017.4
2017-09-27T00:31:39.855Z,1017.41
2017-09-27T00:32:05.977Z,1017.39
2017-09-27T00:32:32.097Z,1017.39
2017-09-27T00:32:58.218Z,1017.38
2017-09-27T00:33:24.367Z,1017.37
2017-09-27T00:33:50.488Z,1017.39
2017-09-27T00:34:16.616Z,1017.38
2017-09-27T00:34:42.741Z,1017.4
2017-09-27T00:35:08.858Z,1017.41
2017-09-27T00:35:34.981Z,1017.4
2017-09-27T00:36:01.107Z,1017.4
2017-09-27T00:36:27.237Z,1017.4
2017-09-27T00:36:53.367Z,1017.42
2017-09-27T00:37:19.512Z,1017.42
2017-09-27T00:37:45.639Z,1017.4
2017-09-27T00:38:11.787Z,1017.42
2017-09-27T00:38:37.904Z,1017.4
2017-09-27T00:39:04.029Z,1017.39
2017-09-27T00:39:30.145Z,1017.4
2017-09-27T00:39:56.272Z,1017.38
2017-09-27T00:40:22.399Z,1017.36
2017-09-27T00:40:48.518Z,1017.4
2017-09-27T00:41:14.636Z,1017.38
2017-09-27T00:41:40.763Z,1017.39
2017-09-27T00:42:06.890Z,1017.34
2017-09-27T00:42:33.014Z,1017.33
2017-09-27T00:42:59.135Z,1017.35
2017-09-27T00:43:25.253Z,1017.34
2017-09-27T00:43:51.380Z,1017.33
2017-09-27T00:44:17.509Z,1017.37
2017-09-27T00:44:43.645Z,1017.32
2017-09-27T00:45:09.765Z,1017.36
2017-09-27T00:45:35.912Z,1017.36
2017-09-27T00:46:02.030Z,1017.35
2017-09-27T00:46:28.162Z,1017.36
2017-09-27T00:46:54.289Z,1017.38
2017-09-27T00:47:20.408Z,1017.38
2017-09-27T00:47:46.532Z,1017.35
2017-09-27T00:48:12.659Z,1017.32
2017-09-27T00:48:38.785Z,1017.34
2017-09-27T00:49:04.903Z,1017.36
2017-09-27T00:49:31.025Z,1017.36
2017-09-27T00:49:57.149Z,1017.33
2017-09-27T00:50:23.292Z,1017.32
2017-09-27T00:50:49.409Z,1017.28
2017-09-27T00:51:15.538Z,1017.31
2017-09-27T00:51:41.663Z,1017.31
2017-09-27T00:52:07.786Z,1017.28
2017-09-27T00:52:33.904Z,1017.29
2017-09-27T00:53:00.028Z,1017.28
2017-09-27T00:53:26.172Z,1017.33
2017-09-27T00:53:52.297Z,1017.3
2017-09-27T00:54:18.416Z,1017.32
2017-09-27T00:54:44.544Z,1017.31
2017-09-27T00:55:10.662Z,1017.27
2017-09-27T00:55:36.784Z,1017.29
2017-09-27T00:56:02.906Z,1017.27
2017-09-27T00:56:29.033Z,1017.27
2017-09-27T00:56:55.152Z,1017.26
2017-09-27T00:57:21.274Z,1017.27
2017-09-27T00:57:47.405Z,1017.26
2017-09-27T00:58:13.523Z,1017.24
2017-09-27T00:58:39.649Z,1017.24
2017-09-27T00:59:05.767Z,1017.25
2017-09-27T00:59:31.888Z,1017.25
2017-09-27T00:59:58.011Z,1017.2
2017-09-27T01:00:24.133Z,1017.24
2017-09-27T01:00:50.263Z,1017.21
2017-09-27T01:01:16.404Z,1017.23
2017-09-27T01:01:42.531Z,1017.23
2017-09-27T01:02:08.659Z,1017.18
2017-09-27T01:02:34.781Z,1017.18
2017-09-27T01:03:00.905Z,1017.21
2017-09-27T01:03:27.029Z,1017.21
2017-09-27T01:03:53.149Z,1017.18
2017-09-27T01:04:19.271Z,1017.14
2017-09-27T01:04:45.401Z,1017.21
2017-09-27T01:05:11.526Z,1017.18
2017-09-27T01:05:37.647Z,1017.19
2017-09-27T01:06:03.774Z,1017.16
2017-09-27T01:06:29.888Z,1017.17
2017-09-27T01:06:56.010Z,1017.18
2017-09-27T01:07:22.136Z,1017.19
2017-09-27T01:07:48.254Z,1017.18
2017-09-27T01:08:14.385Z,1017.19
2017-09-27T01:08:40.512Z,1017.17
2017-09-27T01:09:06.631Z,1017.18
2017-09-27T01:09:32.764Z,1017.18
2017-09-27T01:09:58.883Z,1017.17
2017-09-27T01:10:25.028Z,1017.16
2017-09-27T01:10:51.148Z,1017.14
2017-09-27T01:11:17.270Z,1017.17
2017-09-27T01:11:43.401Z,1017.18
2017-09-27T01:12:09.520Z,1017.21
2017-09-27T01:12:35.647Z,1017.17
2017-09-27T01:13:01.773Z,1017.16
2017-09-27T01:13:27.890Z,1017.15
2017-09-27T01:13:54.012Z,1017.17
2017-09-27T01:14:20.139Z,1017.16
2017-09-27T01:14:46.262Z,1017.15
2017-09-27T01:15:12.388Z,1017.13
2017-09-27T01:15:38.512Z,1017.13
2017-09-27T01:16:04.630Z,1017.1
2017-09-27T01:16:30.758Z,1017.09
2017-09-27T01:16:56.881Z,1017.08
2017-09-27T01:17:22.999Z,1017.13
2017-09-27T01:17:49.124Z,1017.09
2017-09-27T01:18:15.251Z,1017.07
2017-09-27T01:18:41.368Z,1017.09
2017-09-27T01:19:07.490Z,1017.08
2017-09-27T01:19:33.620Z,1017.08
2017-09-27T01:19:59.738Z,1017.06
2017-09-27T01:20:25.863Z,1017.07
2017-09-27T01:20:51.984Z,1017.08
2017-09-27T01:21:18.113Z,1017.08
2017-09-27T01:21:44.237Z,1017.08
2017-09-27T01:22:10.377Z,1017.03
2017-09-27T01:22:36.508Z,1017.04
2017-09-27T01:23:02.627Z,1017.06
2017-09-27T01:23:28.757Z,1017.03
2017-09-27T01:23:54.878Z,1017.04
2017-09-27T01:24:20.996Z,1017.03
2017-09-27T01:24:47.128Z,1017.03
2017-09-27T01:25:13.248Z,1017.05
2017-09-27T01:25:39.366Z,1016.99
2017-09-27T01:26:05.486Z,1017.03
2017-09-27T01:26:31.609Z,1017.02
2017-09-27T01:26:57.736Z,1017.05
2017-09-27T01:27:23.860Z,1017.01
2017-09-27T01:27:49.978Z,1016.98
2017-09-27T01:28:16.142Z,1017.04
2017-09-27T01:28:42.222Z,1017.03
2017-09-27T01:29:08.345Z,1017.04
2017-09-27T01:29:34.464Z,1017.02
2017-09-27T01:30:00.590Z,1017.04
2017-09-27T01:30:26.707Z,1017.04
2017-09-27T01:30:52.827Z,1017.04
2017-09-27T01:31:18.953Z,1017.02
2017-09-27T01:31:45.072Z,1017.03
2017-09-27T01:32:11.206Z,1017.07
2017-09-27T01:32:37.324Z,1017.03
2017-09-27T01:33:03.446Z,1017.01
2017-09-27T01:33:29.575Z,1017.02
2017-09-27T01:33:55.698Z,1017
2017-09-27T01:34:21.820Z,1017.01
2017-09-27T01:34:47.940Z,1017.02
2017-09-27T01:35:14.065Z,1017
2017-09-27T01:35:40.193Z,1016.99
2017-09-27T01:36:06.312Z,1017.03
2017-09-27T01:36:32.434Z,1017
2017-09-27T01:36:58.561Z,1017.02
2017-09-27T01:37:24.683Z,1016.99
2017-09-27T01:37:50.801Z,1017.03
2017-09-27T01:38:16.923Z,1017.04
2017-09-27T01:38:43.076Z,1017.05
2017-09-27T01:39:09.192Z,1017.03
2017-09-27T01:39:35.321Z,1017.04
2017-09-27T01:40:01.448Z,1017.06
2017-09-27T01:40:27.569Z,1017.03
2017-09-27T01:40:53.696Z,1017.04
2017-09-27T01:41:19.813Z,1017.08
2017-09-27T01:41:45.938Z,1017.07
2017-09-27T01:42:12.061Z,1017.08
2017-09-27T01:42:38.180Z,1017.06
2017-09-27T01:43:04.331Z,1017.07
2017-09-27T01:43:30.445Z,1017.02
2017-09-27T01:43:56.575Z,1017.07
2017-09-27T01:44:22.705Z,1017.05
2017-09-27T01:44:48.827Z,1017.06
2017-09-27T01:45:14.953Z,1017.06
2017-09-27T01:45:41.069Z,1017.03
2017-09-27T01:46:07.210Z,1017.04
2017-09-27T01:46:33.328Z,1017.02
2017-09-27T01:46:59.477Z,1017.02
2017-09-27T01:47:25.604Z,1017.02
2017-09-27T01:47:51.716Z,1017.01
2017-09-27T01:48:17.844Z,1017.01
2017-09-27T01:48:43.966Z,1016.99
2017-09-27T01:49:10.091Z,1017
2017-09-27T01:49:36.219Z,1017.01
2017-09-27T01:50:02.339Z,1017.01
2017-09-27T01:50:28.492Z,1017.01
2017-09-27T01:50:54.610Z,1017.02
2017-09-27T01:51:20.730Z,1017
2017-09-27T01:51:46.852Z,1017.02
2017-09-27T01:52:12.976Z,1017.03
2017-09-27T01:52:39.095Z,1017.03
2017-09-27T01:53:05.238Z,1017.03
2017-09-27T01:53:31.366Z,1017.02
2017-09-27T01:53:57.486Z,1017.03
2017-09-27T01:54:23.609Z,1017.03
2017-09-27T01:54:49.730Z,1016.97
2017-09-27T01:55:15.857Z,1017.03
2017-09-27T01:55:41.974Z,1017.03
2017-09-27T01:56:08.100Z,1017.05
2017-09-27T01:56:34.227Z,1017.04
2017-09-27T01:57:00.367Z,1017.03
2017-09-27T01:57:26.496Z,1017.01
2017-09-27T01:57:52.614Z,1016.99
2017-09-27T01:58:18.738Z,1017.02
2017-09-27T01:58:44.862Z,1017.05
2017-09-27T01:59:10.981Z,1016.99
2017-09-27T01:59:37.109Z,1017.02
2017-09-27T02:00:03.233Z,1017.02
2017-09-27T02:00:29.351Z,1017.06
2017-09-27T02:00:55.474Z,1017.04
2017-09-27T02:01:21.600Z,1017.01
2017-09-27T02:01:47.725Z,1017
2017-09-27T02:02:13.841Z,1017.06
2017-09-27T02:02:39.970Z,1017.02
2017-09-27T02:03:06.092Z,1017.03
2017-09-27T02:03:32.211Z,1016.99
2017-09-27T02:03:58.339Z,1017
2017-09-27T02:04:24.479Z,1017.02
2017-09-27T02:04:50.611Z,1017.01
2017-09-27T02:05:16.734Z,1017.01
2017-09-27T02:05:42.877Z,1017.03
2017-09-27T02:06:09.024Z,1017.01
2017-09-27T02:06:35.140Z,1017.01
2017-09-27T02:07:01.264Z,1016.97
2017-09-27T02:07:27.394Z,1016.97
2017-09-27T02:07:53.516Z,1016.97
2017-09-27T02:08:19.636Z,1016.99
2017-09-27T02:08:45.763Z,1016.97
2017-09-27T02:09:11.884Z,1017.01
2017-09-27T02:09:38.012Z,1017.01
2017-09-27T02:10:04.132Z,1017.02
2017-09-27T02:10:30.256Z,1017.01
2017-09-27T02:10:56.378Z,1016.95
2017-09-27T02:11:22.492Z,1016.98
2017-09-27T02:11:48.620Z,1016.98
2017-09-27T02:12:14.737Z,1016.97
2017-09-27T02:12:40.866Z,1016.99
2017-09-27T02:13:06.989Z,1016.97
2017-09-27T02:13:33.115Z,1016.97
2017-09-27T02:13:59.230Z,1016.99
2017-09-27T02:14:25.357Z,1017
2017-09-27T02:14:51.483Z,1017.02
2017-09-27T02:15:17.613Z,1017
2017-09-27T02:15:43.740Z,1017.04
2017-09-27T02:16:09.859Z,1017
2017-09-27T02:16:35.977Z,1017.03
2017-09-27T02:17:02.120Z,1017.01
2017-09-27T02:17:28.259Z,1017.01
2017-09-27T02:17:54.419Z,1017.04
2017-09-27T02:18:20.507Z,1017.03
2017-09-27T02:18:46.635Z,1017.03
2017-09-27T02:19:12.761Z,1017.02
2017-09-27T02:19:38.879Z,1017.02
2017-09-27T02:20:05.007Z,1017.02
2017-09-27T02:20:31.131Z,1017.07
2017-09-27T02:20:57.278Z,1017.05
2017-09-27T02:21:23.397Z,1017.05
2017-09-27T02:21:49.523Z,1017.07
2017-09-27T02:22:15.642Z,1017.03
2017-09-27T02:22:41.764Z,1017.04
2017-09-27T02:23:07.891Z,1017.05
2017-09-27T02:23:34.017Z,1017.05
2017-09-27T02:24:00.136Z,1017.06
2017-09-27T02:24:26.263Z,1017
2017-09-27T02:24:52.382Z,1017.04
2017-09-27T02:25:18.502Z,1017.01
2017-09-27T02:25:44.629Z,1017
2017-09-27T02:26:10.747Z,1017.01
2017-09-27T02:26:36.873Z,1017.02
2017-09-27T02:27:03.001Z,1017.03
2017-09-27T02:27:29.120Z,1017.04
2017-09-27T02:27:55.242Z,1016.99
2017-09-27T02:28:21.375Z,1017.01
2017-09-27T02:28:47.493Z,1017
2017-09-27T02:29:13.623Z,1017.02
2017-09-27T02:29:39.735Z,1017.01
2017-09-27T02:30:05.862Z,1017.01
2017-09-27T02:30:32.010Z,1017.04
2017-09-27T02:30:58.138Z,1017.03
2017-09-27T02:31:24.279Z,1017.03
2017-09-27T02:31:50.401Z,1017.03
2017-09-27T02:32:16.521Z,1017
2017-09-27T02:32:42.647Z,1017.04
2017-09-27T02:33:08.769Z,1017.06
2017-09-27T02:33:34.899Z,1017.03
2017-09-27T02:34:01.046Z,1017.01
2017-09-27T02:34:27.169Z,1016.95
2017-09-27T02:34:53.293Z,1017.02
2017-09-27T02:35:19.416Z,1016.99
2017-09-27T02:35:45.540Z,1017
2017-09-27T02:36:11.679Z,1017.01
2017-09-27T02:36:37.803Z,1016.96
2017-09-27T02:37:03.925Z,1017.01
2017-09-27T02:37:30.049Z,1017.03
2017-09-27T02:37:56.165Z,1016.98
2017-09-27T02:38:22.290Z,1017.01
2017-09-27T02:38:48.418Z,1016.99
2017-09-27T02:39:14.535Z,1016.98
2017-09-27T02:39:40.663Z,1016.97
2017-09-27T02:40:06.781Z,1016.98
2017-09-27T02:40:32.908Z,1017.01
2017-09-27T02:40:59.038Z,1016.98
2017-09-27T02:41:25.157Z,1016.97
2017-09-27T02:41:51.279Z,1016.98
2017-09-27T02:42:17.405Z,1016.99
2017-09-27T02:42:43.554Z,1016.97
2017-09-27T02:43:09.692Z,1016.99
2017-09-27T02:43:35.823Z,1017.02
2017-09-27T02:44:01.943Z,1017.03
2017-09-27T02:44:28.064Z,1017.02
2017-09-27T02:44:54.190Z,1016.98
2017-09-27T02:45:20.318Z,1016.97
2017-09-27T02:45:46.436Z,1016.98
2017-09-27T02:46:12.565Z,1017.01
2017-09-27T02:46:38.685Z,1016.98
2017-09-27T02:47:04.812Z,1016.98
2017-09-27T02:47:30.932Z,1016.99
2017-09-27T02:47:57.056Z,1017
2017-09-27T02:48:23.181Z,1017.01
2017-09-27T02:48:49.328Z,1016.99
2017-09-27T02:49:15.466Z,1016.96
2017-09-27T02:49:41.586Z,1016.95
2017-09-27T02:50:07.713Z,1016.99
2017-09-27T02:50:33.830Z,1016.98
2017-09-27T02:50:59.960Z,1016.96
2017-09-27T02:51:26.085Z,1016.97
2017-09-27T02:51:52.211Z,1016.97
2017-09-27T02:52:18.326Z,1016.98
2017-09-27T02:52:44.452Z,1016.97
2017-09-27T02:53:10.576Z,1016.97
2017-09-27T02:53:36.706Z,1016.95
2017-09-27T02:54:02.832Z,1016.99
2017-09-27T02:54:28.950Z,1016.97
2017-09-27T02:54:55.072Z,1017
2017-09-27T02:55:21.189Z,1016.99
2017-09-27T02:55:47.317Z,1016.96
2017-09-27T02:56:13.435Z,1017
2017-09-27T02:56:39.558Z,1016.97
2017-09-27T02:57:05.687Z,1016.98
2017-09-27T02:57:31.812Z,1016.96
2017-09-27T02:57:57.932Z,1016.96
2017-09-27T02:58:24.059Z,1016.98
2017-09-27T02:58:50.205Z,1016.97
2017-09-27T02:59:16.327Z,1017.01
2017-09-27T02:59:42.454Z,1016.98
2017-09-27T03:00:08.592Z,1016.96
2017-09-27T03:00:34.710Z,1016.98
2017-09-27T03:01:00.836Z,1016.99
2017-09-27T03:01:26.980Z,1016.98
2017-09-27T03:01:53.103Z,1016.98
2017-09-27T03:02:19.224Z,1017.01
2017-09-27T03:02:45.349Z,1017.02
2017-09-27T03:03:11.470Z,1016.97
2017-09-27T03:03:37.590Z,1017.02
2017-09-27T03:04:03.717Z,1017
2017-09-27T03:04:29.837Z,1017.02
2017-09-27T03:04:55.959Z,1017.04
2017-09-27T03:05:22.088Z,1017.01
2017-09-27T03:05:48.211Z,1017.06
2017-09-27T03:06:14.336Z,1017.03
2017-09-27T03:06:40.451Z,1017.02
2017-09-27T03:07:06.578Z,1017.05
2017-09-27T03:07:32.698Z,1017.04
2017-09-27T03:07:58.819Z,1017.04
2017-09-27T03:08:24.946Z,1017.04
2017-09-27T03:08:51.067Z,1017.04
2017-09-27T03:09:17.213Z,1017.07
2017-09-27T03:09:43.333Z,1017.08
2017-09-27T03:10:09.460Z,1017.05
2017-09-27T03:10:35.577Z,1017.04
2017-09-27T03:11:01.705Z,1017.06
2017-09-27T03:11:27.830Z,1017.03
2017-09-27T03:11:53.949Z,1017.03
2017-09-27T03:12:20.080Z,1017.05
2017-09-27T03:12:46.201Z,1017.05
2017-09-27T03:13:12.318Z,1017.06
2017-09-27T03:13:38.446Z,1017.06
2017-09-27T03:14:04.572Z,1017.04
2017-09-27T03:14:30.690Z,1017.06
2017-09-27T03:14:56.821Z,1017.03
2017-09-27T03:15:22.938Z,1017.06
2017-09-27T03:15:49.065Z,1017.05
2017-09-27T03:16:15.186Z,1017.06
2017-09-27T03:16:41.306Z,1017.07
2017-09-27T03:17:07.433Z,1017.08
2017-09-27T03:17:33.560Z,1017.07
2017-09-27T03:17:59.677Z,1017.08
2017-09-27T03:18:25.818Z,1017.07
2017-09-27T03:18:51.950Z,1017.09
2017-09-27T03:19:18.074Z,1017.04
2017-09-27T03:19:44.191Z,1017.07
2017-09-27T03:20:10.318Z,1017.05
2017-09-27T03:20:36.437Z,1017.05
2017-09-27T03:21:02.558Z,1017.08
2017-09-27T03:21:28.689Z,1017.07
2017-09-27T03:21:54.806Z,1017.05
2017-09-27T03:22:20.935Z,1017.07
2017-09-27T03:22:47.058Z,1017.09
2017-09-27T03:23:13.178Z,1017.08
2017-09-27T03:23:39.299Z,1017.11
2017-09-27T03:24:05.441Z,1017.1
2017-09-27T03:24:31.566Z,1017.1
2017-09-27T03:24:57.692Z,1017.1
2017-09-27T03:25:23.816Z,1017.1
2017-09-27T03:25:49.957Z,1017.13
2017-09-27T03:26:16.085Z,1017.11
2017-09-27T03:26:42.212Z,1017.16
2017-09-27T03:27:08.332Z,1017.14
2017-09-27T03:27:34.460Z,1017.16
2017-09-27T03:28:00.579Z,1017.17
2017-09-27T03:28:26.698Z,1017.17
2017-09-27T03:28:52.842Z,1017.19
2017-09-27T03:29:18.967Z,1017.18
2017-09-27T03:29:45.134Z,1017.19
2017-09-27T03:30:11.282Z,1017.19
2017-09-27T03:30:37.406Z,1017.16
2017-09-27T03:31:03.545Z,1017.16
2017-09-27T03:31:29.680Z,1017.13
2017-09-27T03:31:55.798Z,1017.16
2017-09-27T03:32:21.925Z,1017.1
2017-09-27T03:32:48.067Z,1017.17
2017-09-27T03:33:14.182Z,1017.14
2017-09-27T03:33:40.310Z,1017.14
2017-09-27T03:34:06.437Z,1017.1
2017-09-27T03:34:32.557Z,1017.09
2017-09-27T03:34:58.679Z,1017.1
2017-09-27T03:35:24.807Z,1017.08
2017-09-27T03:35:50.926Z,1017.09
2017-09-27T03:36:17.053Z,1017.13
2017-09-27T03:36:43.200Z,1017.12
2017-09-27T03:37:09.317Z,1017.13
2017-09-27T03:37:35.439Z,1017.09
2017-09-27T03:38:01.570Z,1017.08
2017-09-27T03:38:27.696Z,1017.11
2017-09-27T03:38:53.815Z,1017.1
2017-09-27T03:39:19.944Z,1017.08
2017-09-27T03:39:46.063Z,1017.11
2017-09-27T03:40:12.192Z,1017.08
2017-09-27T03:40:38.311Z,1017.1
2017-09-27T03:41:04.432Z,1017.11
2017-09-27T03:41:30.562Z,1017.1
2017-09-27T03:41:56.681Z,1017.12
2017-09-27T03:42:22.808Z,1017.14
2017-09-27T03:42:48.950Z,1017.05
2017-09-27T03:43:15.075Z,1017.09
2017-09-27T03:43:41.198Z,1017.09
2017-09-27T03:44:07.321Z,1017.07
2017-09-27T03:44:33.443Z,1017.05
2017-09-27T03:44:59.571Z,1017.07
2017-09-27T03:45:25.695Z,1017.09
2017-09-27T03:45:51.815Z,1017.1
2017-09-27T03:46:17.937Z,1017.07
2017-09-27T03:46:44.058Z,1017.04
2017-09-27T03:47:10.179Z,1017.05
2017-09-27T03:47:36.300Z,1017.05
2017-09-27T03:48:02.432Z,1017.08
2017-09-27T03:48:28.550Z,1017.09
2017-09-27T03:48:54.680Z,1017.04
2017-09-27T03:49:20.794Z,1017.05
2017-09-27T03:49:46.923Z,1017.04
2017-09-27T03:50:13.048Z,1017.03
2017-09-27T03:50:39.174Z,1017.04
2017-09-27T03:51:05.298Z,1017.02
2017-09-27T03:51:31.426Z,1017.04
2017-09-27T03:51:57.553Z,1017.03
2017-09-27T03:52:23.672Z,1017.02
2017-09-27T03:52:49.802Z,1017.04
2017-09-27T03:53:15.918Z,1017.03
2017-09-27T03:53:42.039Z,1017.03
2017-09-27T03:54:08.162Z,1017.05
2017-09-27T03:54:34.286Z,1017.03
2017-09-27T03:55:00.417Z,1017.02
2017-09-27T03:55:26.533Z,1017.03
2017-09-27T03:55:52.665Z,1017.03
2017-09-27T03:56:18.781Z,1017.01
2017-09-27T03:56:44.912Z,1017.03
2017-09-27T03:57:11.034Z,1017.02
2017-09-27T03:57:37.159Z,1017.03
2017-09-27T03:58:03.278Z,1017
2017-09-27T03:58:29.406Z,1017.02
2017-09-27T03:58:55.524Z,1017.02
2017-09-27T03:59:21.653Z,1017.02
2017-09-27T03:59:47.774Z,1017.04
2017-09-27T04:00:13.893Z,1017.01
2017-09-27T04:00:40.018Z,1017.06
2017-09-27T04:01:06.150Z,1017.01
2017-09-27T04:01:32.264Z,1017.05
2017-09-27T04:01:58.387Z,1017.07
2017-09-27T04:02:24.514Z,1017.08
2017-09-27T04:02:50.640Z,1017.06
2017-09-27T04:03:16.780Z,1017.05
2017-09-27T04:03:42.902Z,1017.08
2017-09-27T04:04:09.026Z,1017.06
2017-09-27T04:04:35.154Z,1017.12
2017-09-27T04:05:01.272Z,1017.11
2017-09-27T04:05:27.395Z,1017.14
2017-09-27T04:05:53.527Z,1017.12
2017-09-27T04:06:19.665Z,1017.11
2017-09-27T04:06:45.793Z,1017.11
2017-09-27T04:07:11.912Z,1017.13
2017-09-27T04:07:38.044Z,1017.14
2017-09-27T04:08:04.170Z,1017.1
2017-09-27T04:08:30.292Z,1017.16
2017-09-27T04:08:56.411Z,1017.13
2017-09-27T04:09:22.552Z,1017.14
2017-09-27T04:09:48.679Z,1017.13
2017-09-27T04:10:14.821Z,1017.16
2017-09-27T04:10:40.964Z,1017.16
2017-09-27T04:11:07.090Z,1017.14
2017-09-27T04:11:33.208Z,1017.15
2017-09-27T04:11:59.352Z,1017.19
2017-09-27T04:12:25.466Z,1017.15
2017-09-27T04:12:51.605Z,1017.13
2017-09-27T04:13:17.752Z,1017.12
2017-09-27T04:13:43.866Z,1017.13
2017-09-27T04:14:09.993Z,1017.12
2017-09-27T04:14:36.110Z,1017.12
2017-09-27T04:15:02.230Z,1017.14
2017-09-27T04:15:28.355Z,1017.13
2017-09-27T04:15:54.483Z,1017.12
2017-09-27T04:16:20.612Z,1017.12
2017-09-27T04:16:46.732Z,1017.1
2017-09-27T04:17:12.859Z,1017.11
2017-09-27T04:17:38.975Z,1017.08
2017-09-27T04:18:05.095Z,1017.11
2017-09-27T04:18:31.216Z,1017.09
2017-09-27T04:18:57.338Z,1017.11
2017-09-27T04:19:23.461Z,1017.11
2017-09-27T04:19:49.590Z,1017.08
2017-09-27T04:20:15.707Z,1017.07
2017-09-27T04:20:41.835Z,1017.09
2017-09-27T04:21:07.954Z,1017.09
2017-09-27T04:21:34.085Z,1017.1
2017-09-27T04:22:00.207Z,1017.06
2017-09-27T04:22:26.325Z,1017.06
2017-09-27T04:22:52.446Z,1017.09
2017-09-27T04:23:18.574Z,1017.06
2017-09-27T04:23:44.700Z,1017.09
2017-09-27T04:24:10.852Z,1017.08
2017-09-27T04:24:36.945Z,1017.08
2017-09-27T04:25:03.065Z,1017.01
2017-09-27T04:25:29.184Z,1017.04
2017-09-27T04:25:55.308Z,1017.02
2017-09-27T04:26:21.432Z,1017.04
2017-09-27T04:26:47.559Z,1017.07
2017-09-27T04:27:13.701Z,1017.06
2017-09-27T04:27:39.830Z,1017.08
2017-09-27T04:28:05.948Z,1017.06
2017-09-27T04:28:32.075Z,1017.06
2017-09-27T04:28:58.195Z,1017.08
2017-09-27T04:29:24.369Z,1017.11
2017-09-27T04:29:50.489Z,1017.08
2017-09-27T04:30:16.618Z,1017.07
2017-09-27T04:30:42.738Z,1017.07
2017-09-27T04:31:08.865Z,1017.1
2017-09-27T04:31:34.980Z,1017.11
2017-09-27T04:32:01.101Z,1017.15
2017-09-27T04:32:27.228Z,1017.11
2017-09-27T04:32:53.345Z,1017.1
2017-09-27T04:33:19.478Z,1017.12
2017-09-27T04:33:45.598Z,1017.14
2017-09-27T04:34:11.725Z,1017.12
2017-09-27T04:34:37.845Z,1017.15
2017-09-27T04:35:03.972Z,1017.12
2017-09-27T04:35:30.091Z,1017.08
2017-09-27T04:35:56.226Z,1017.11
2017-09-27T04:36:22.349Z,1017.12
2017-09-27T04:36:48.496Z,1017.12
2017-09-27T04:37:14.625Z,1017.15
2017-09-27T04:37:40.743Z,1017.12
2017-09-27T04:38:06.873Z,1017.15
2017-09-27T04:38:32.990Z,1017.1
2017-09-27T04:38:59.110Z,1017.12
2017-09-27T04:39:25.231Z,1017.17
2017-09-27T04:39:51.357Z,1017.1
2017-09-27T04:40:17.485Z,1017.13
2017-09-27T04:40:43.607Z,1017.16
2017-09-27T04:41:09.759Z,1017.13
2017-09-27T04:41:35.901Z,1017.17
2017-09-27T04:42:02.021Z,1017.08
2017-09-27T04:42:28.146Z,1017.1
2017-09-27T04:42:54.274Z,1017.14
2017-09-27T04:43:20.396Z,1017.11
2017-09-27T04:43:46.515Z,1017.13
2017-09-27T04:44:12.661Z,1017.14
2017-09-27T04:44:38.782Z,1017.13
2017-09-27T04:45:04.931Z,1017.11
2017-09-27T04:45:31.049Z,1017.13
2017-09-27T04:45:57.174Z,1017.11
2017-09-27T04:46:23.304Z,1017.12
2017-09-27T04:46:49.424Z,1017.11
2017-09-27T04:47:15.548Z,1017.12
2017-09-27T04:47:41.666Z,1017.17
2017-09-27T04:48:07.795Z,1017.13
2017-09-27T04:48:33.914Z,1017.14
2017-09-27T04:49:00.036Z,1017.15
2017-09-27T04:49:26.162Z,1017.15
2017-09-27T04:49:52.286Z,1017.17
2017-09-27T04:50:18.403Z,1017.14
2017-09-27T04:50:44.527Z,1017.17
2017-09-27T04:51:10.656Z,1017.16
2017-09-27T04:51:36.774Z,1017.16
2017-09-27T04:52:02.903Z,1017.16
2017-09-27T04:52:29.020Z,1017.18
2017-09-27T04:52:55.149Z,1017.17
2017-09-27T04:53:21.276Z,1017.14
2017-09-27T04:53:47.444Z,1017.15
2017-09-27T04:54:13.571Z,1017.17
2017-09-27T04:54:39.690Z,1017.18
2017-09-27T04:55:05.810Z,1017.16
2017-09-27T04:55:31.937Z,1017.13
2017-09-27T04:55:58.060Z,1017.16
2017-09-27T04:56:24.185Z,1017.17
2017-09-27T04:56:50.304Z,1017.16
2017-09-27T04:57:16.430Z,1017.17
2017-09-27T04:57:42.547Z,1017.16
2017-09-27T04:58:08.668Z,1017.17
2017-09-27T04:58:34.787Z,1017.19
2017-09-27T04:59:00.918Z,1017.19
2017-09-27T04:59:27.049Z,1017.18
2017-09-27T04:59:53.176Z,1017.16
2017-09-27T05:00:19.300Z,1017.17
2017-09-27T05:00:45.415Z,1017.16
2017-09-27T05:01:11.540Z,1017.14
2017-09-27T05:01:37.668Z,1017.19
2017-09-27T05:02:03.787Z,1017.18
2017-09-27T05:02:29.914Z,1017.17
2017-09-27T05:02:56.039Z,1017.13
2017-09-27T05:03:22.160Z,1017.18
2017-09-27T05:03:48.272Z,1017.18
2017-09-27T05:04:14.396Z,1017.18
2017-09-27T05:04:40.541Z,1017.18
2017-09-27T05:05:06.696Z,1017.18
2017-09-27T05:05:32.789Z,1017.19
2017-09-27T05:05:58.917Z,1017.18
2017-09-27T05:06:25.038Z,1017.18
2017-09-27T05:06:51.162Z,1017.17
2017-09-27T05:07:17.289Z,1017.22
2017-09-27T05:07:43.407Z,1017.19
2017-09-27T05:08:09.528Z,1017.22
2017-09-27T05:08:35.656Z,1017.25
2017-09-27T05:09:01.784Z,1017.25
2017-09-27T05:09:27.902Z,1017.28
2017-09-27T05:09:54.023Z,1017.26
2017-09-27T05:10:20.149Z,1017.3
2017-09-27T05:10:46.276Z,1017.28
2017-09-27T05:11:12.395Z,1017.27
2017-09-27T05:11:38.519Z,1017.3
2017-09-27T05:12:04.648Z,1017.31
2017-09-27T05:12:30.768Z,1017.32
2017-09-27T05:12:56.885Z,1017.29
2017-09-27T05:13:23.013Z,1017.33
2017-09-27T05:13:49.131Z,1017.31
2017-09-27T05:14:15.254Z,1017.32
2017-09-27T05:14:41.378Z,1017.33
2017-09-27T05:15:07.499Z,1017.32
2017-09-27T05:15:33.628Z,1017.31
2017-09-27T05:15:59.766Z,1017.34
2017-09-27T05:16:25.893Z,1017.35
2017-09-27T05:16:52.035Z,1017.29
2017-09-27T05:17:18.156Z,1017.34